Time;durP1;ratioP1;P1;durP2;ratioP2;P2;SDS_P1;SDS_P2;PMS_P1;PMS_P2;Temp;Humidity;BMP_temperature;BMP_pressure;BME280_temperature;BME280_humidity;BME280_pressure;Samples;Min_cycle;Max_cycle;Signal;HPM_P1;HPM_P2
2023/06/20 00:02:01;;;;;;;9.20;8.18;;;17.20;99.90;;;;;;5026326;28;20237;-82
2023/06/20 00:04:28;;;;;;;9.80;8.80;;;17.20;99.90;;;;;;5022884;28;20239;-82
2023/06/20 00:06:55;;;;;;;8.90;8.00;;;17.20;99.90;;;;;;5020531;28;20235;-82
2023/06/20 00:09:23;;;;;;;8.77;7.85;;;17.10;99.90;;;;;;5023000;28;20216;-81
2023/06/20 00:11:51;;;;;;;8.82;8.00;;;17.10;99.90;;;;;;5025509;28;20312;-81
2023/06/20 00:14:18;;;;;;;8.98;8.07;;;17.00;99.90;;;;;;5024505;28;20228;-81
2023/06/20 00:16:45;;;;;;;10.25;8.55;;;17.00;99.90;;;;;;5020319;28;20715;-81
2023/06/20 00:19:11;;;;;;;9.63;7.80;;;16.90;99.90;;;;;;5024218;28;20312;-81
2023/06/20 00:21:39;;;;;;;10.38;8.82;;;16.90;99.90;;;;;;5027298;28;20222;-81
2023/06/20 00:24:09;;;;;;;9.13;8.20;;;16.90;99.90;;;;;;5022317;28;20318;-81
2023/06/20 00:26:37;;;;;;;9.20;8.30;;;16.80;99.90;;;;;;5023621;28;20307;-81
2023/06/20 00:29:04;;;;;;;9.87;8.43;;;16.80;99.90;;;;;;5036206;28;20224;-81
2023/06/20 00:31:31;;;;;;;9.47;8.57;;;16.60;99.90;;;;;;5024675;28;20225;-81
2023/06/20 00:33:58;;;;;;;8.48;7.68;;;16.70;99.90;;;;;;5024444;28;20222;-81
2023/06/20 00:36:26;;;;;;;11.32;8.48;;;16.60;99.90;;;;;;5024029;28;20235;-81
2023/06/20 00:38:53;;;;;;;10.70;8.38;;;16.60;99.90;;;;;;5055809;28;20294;-81
2023/06/20 00:41:21;;;;;;;10.13;8.65;;;16.50;99.90;;;;;;5023900;28;20224;-80
2023/06/20 00:43:49;;;;;;;11.82;9.50;;;16.50;99.90;;;;;;5024176;28;20237;-80
2023/06/20 00:46:17;;;;;;;9.52;8.32;;;16.50;99.90;;;;;;5052934;28;20358;-80
2023/06/20 00:48:47;;;;;;;10.00;8.77;;;16.40;99.90;;;;;;5022288;28;20232;-80
2023/06/20 00:51:14;;;;;;;9.17;8.07;;;16.40;99.90;;;;;;5025083;28;20251;-80
2023/06/20 00:53:42;;;;;;;9.20;8.30;;;16.30;99.90;;;;;;5024101;28;20279;-80
2023/06/20 00:56:10;;;;;;;10.20;8.53;;;16.30;99.90;;;;;;5035142;28;20326;-80
2023/06/20 00:58:36;;;;;;;10.13;9.03;;;16.30;99.90;;;;;;5023106;28;20716;-81
2023/06/20 01:01:05;;;;;;;11.82;8.73;;;16.30;99.90;;;;;;5016939;28;20224;-81
2023/06/20 01:03:35;;;;;;;10.17;8.60;;;16.20;99.90;;;;;;5023988;28;20232;-81
2023/06/20 01:06:27;;;;;;;10.77;9.10;;;16.20;99.90;;;;;;5018521;28;20228;-81
2023/06/20 01:09:03;;;;;;;10.63;9.52;;;16.20;99.90;;;;;;5021145;28;20257;-80
2023/06/20 01:11:34;;;;;;;11.57;9.00;;;16.20;99.90;;;;;;5018235;28;20232;-80
2023/06/20 01:14:08;;;;;;;10.57;9.07;;;16.10;99.90;;;;;;5020233;28;20690;-80
2023/06/20 01:16:43;;;;;;;11.57;9.00;;;16.10;99.90;;;;;;5011161;28;20304;-80
2023/06/20 01:19:24;;;;;;;10.27;8.47;;;16.10;99.90;;;;;;5022941;28;20315;-81
2023/06/20 01:21:54;;;;;;;11.97;9.00;;;16.00;99.90;;;;;;5021451;28;20220;-81
2023/06/20 01:24:29;;;;;;;10.63;9.23;;;16.00;99.90;;;;;;5019778;28;20962;-80
2023/06/20 01:27:02;;;;;;;10.97;9.70;;;15.90;99.90;;;;;;5019793;28;20216;-81
2023/06/20 01:29:35;;;;;;;10.90;8.70;;;15.90;99.90;;;;;;5022318;28;20224;-80
2023/06/20 01:32:07;;;;;;;10.17;9.13;;;15.80;99.90;;;;;;5017664;28;20785;-80
2023/06/20 01:34:41;;;;;;;10.40;9.07;;;15.70;99.90;;;;;;5008367;28;20231;-80
2023/06/20 01:37:13;;;;;;;10.60;9.50;;;15.70;99.90;;;;;;5002157;28;20224;-80
2023/06/20 01:39:45;;;;;;;11.37;9.20;;;15.60;99.90;;;;;;5024698;28;20721;-80
2023/06/20 01:42:16;;;;;;;10.27;8.90;;;15.60;99.90;;;;;;5022961;28;20270;-81
2023/06/20 01:44:44;;;;;;;10.50;9.40;;;15.50;99.90;;;;;;5022154;28;20252;-80
2023/06/20 01:47:12;;;;;;;11.30;10.03;;;15.50;99.90;;;;;;5019122;28;20260;-80
2023/06/20 01:49:40;;;;;;;11.60;10.13;;;15.50;99.90;;;;;;5025135;28;20344;-80
2023/06/20 01:52:09;;;;;;;12.00;9.27;;;15.50;99.90;;;;;;5035856;28;20225;-78
2023/06/20 01:54:37;;;;;;;10.90;9.90;;;15.40;99.90;;;;;;5029617;28;20220;-80
2023/06/20 01:57:06;;;;;;;11.00;9.77;;;15.40;99.90;;;;;;5022841;28;20220;-80
2023/06/20 01:59:34;;;;;;;11.33;10.13;;;15.40;99.90;;;;;;5022976;28;20774;-81
2023/06/20 02:02:03;;;;;;;10.73;9.63;;;15.40;99.90;;;;;;5027533;28;20331;-81
2023/06/20 02:04:31;;;;;;;11.40;10.13;;;15.30;99.90;;;;;;5027141;28;20255;-82
2023/06/20 02:06:59;;;;;;;12.67;10.63;;;15.30;99.90;;;;;;5024513;28;20232;-80
2023/06/20 02:09:28;;;;;;;11.90;10.70;;;15.30;99.90;;;;;;5023796;28;20240;-80
2023/06/20 02:11:55;;;;;;;12.27;10.73;;;15.20;99.90;;;;;;5032687;28;20285;-79
2023/06/20 02:14:25;;;;;;;15.03;10.83;;;15.20;99.90;;;;;;5036265;28;20234;-79
2023/06/20 02:16:52;;;;;;;14.00;11.53;;;15.20;99.90;;;;;;5026389;28;20347;-79
2023/06/20 02:19:19;;;;;;;14.97;11.20;;;15.20;99.90;;;;;;5030056;28;20216;-79
2023/06/20 02:21:47;;;;;;;12.90;11.40;;;15.20;99.90;;;;;;5028227;28;20255;-79
2023/06/20 02:24:19;;;;;;;12.73;11.43;;;15.10;99.90;;;;;;5020593;28;20292;-79
2023/06/20 02:26:47;;;;;;;12.70;11.27;;;15.10;99.90;;;;;;5031292;28;20236;-79
2023/06/20 02:29:16;;;;;;;12.30;11.03;;;15.10;99.90;;;;;;5023860;28;20311;-79
2023/06/20 02:31:47;;;;;;;11.93;10.73;;;15.10;99.90;;;;;;5024719;28;20224;-79
2023/06/20 02:34:18;;;;;;;12.60;10.87;;;15.10;99.90;;;;;;5027607;28;20856;-80
2023/06/20 02:36:46;;;;;;;12.83;11.13;;;15.10;99.90;;;;;;5027607;28;20224;-80
2023/06/20 02:39:13;;;;;;;13.57;11.37;;;15.10;99.90;;;;;;5026921;28;20225;-80
2023/06/20 02:41:42;;;;;;;15.00;11.50;;;15.10;99.90;;;;;;5027576;28;20322;-80
2023/06/20 02:44:09;;;;;;;17.50;12.97;;;15.00;99.90;;;;;;5011102;28;20235;-80
2023/06/20 02:46:45;;;;;;;14.50;12.60;;;15.00;99.90;;;;;;5058859;28;20229;-80
2023/06/20 02:49:20;;;;;;;14.50;12.20;;;15.00;99.90;;;;;;5023654;28;20227;-79
2023/06/20 02:51:56;;;;;;;12.87;11.43;;;15.00;99.90;;;;;;5024526;28;20208;-80
2023/06/20 02:54:30;;;;;;;16.50;12.70;;;15.00;99.90;;;;;;5042230;28;20216;-80
2023/06/20 02:57:00;;;;;;;13.77;12.37;;;15.00;99.90;;;;;;5020708;28;20274;-80
2023/06/20 02:59:32;;;;;;;13.77;12.30;;;14.90;99.90;;;;;;5025941;28;20285;-79
2023/06/20 03:02:03;;;;;;;15.53;13.07;;;14.90;99.90;;;;;;5028215;28;20240;-80
2023/06/20 03:04:33;;;;;;;15.03;13.43;;;14.90;99.90;;;;;;5029969;28;20228;-79
2023/06/20 03:07:02;;;;;;;15.70;13.80;;;14.90;99.90;;;;;;5042881;28;20241;-79
2023/06/20 03:09:32;;;;;;;13.97;12.47;;;14.90;99.90;;;;;;5033335;28;20757;-79
2023/06/20 03:11:59;;;;;;;14.70;13.20;;;14.90;99.90;;;;;;5029754;28;20278;-79
2023/06/20 03:14:27;;;;;;;15.13;12.90;;;14.90;99.90;;;;;;5029980;28;20831;-79
2023/06/20 03:16:54;;;;;;;16.43;13.53;;;14.90;99.90;;;;;;5028433;28;20926;-79
2023/06/20 03:19:20;;;;;;;15.93;13.70;;;14.90;99.90;;;;;;5027680;28;20243;-79
2023/06/20 03:21:49;;;;;;;15.37;13.50;;;14.90;99.90;;;;;;5028456;28;20228;-80
2023/06/20 03:24:17;;;;;;;15.27;13.37;;;14.90;99.90;;;;;;5040906;28;20284;-79
2023/06/20 03:26:44;;;;;;;14.23;12.60;;;14.90;99.90;;;;;;5045765;28;20228;-79
2023/06/20 03:29:11;;;;;;;14.50;12.27;;;14.90;99.90;;;;;;5031435;28;20221;-80
2023/06/20 03:31:39;;;;;;;13.63;12.17;;;15.10;99.90;;;;;;5029191;28;20228;-80
2023/06/20 03:34:06;;;;;;;14.33;11.13;;;15.00;99.90;;;;;;5026402;28;20905;-80
2023/06/20 03:36:33;;;;;;;14.43;12.30;;;15.00;99.90;;;;;;5032092;28;20882;-80
2023/06/20 03:39:01;;;;;;;13.60;12.03;;;15.10;99.90;;;;;;5034831;28;20296;-80
2023/06/20 03:41:28;;;;;;;13.97;12.43;;;15.10;99.90;;;;;;5046921;28;20236;-80
2023/06/20 03:43:56;;;;;;;16.00;12.37;;;15.10;99.90;;;;;;5031192;28;20224;-80
2023/06/20 03:46:23;;;;;;;13.77;12.37;;;15.10;99.90;;;;;;5036415;28;20727;-79
2023/06/20 03:48:50;;;;;;;12.93;11.60;;;15.20;99.90;;;;;;5029668;28;20243;-79
2023/06/20 03:51:17;;;;;;;13.00;11.60;;;15.20;99.90;;;;;;5032999;28;20806;-79
2023/06/20 03:53:44;;;;;;;14.37;12.83;;;15.30;99.90;;;;;;5027404;28;20220;-78
2023/06/20 03:56:13;;;;;;;14.13;11.73;;;15.30;99.90;;;;;;5031314;28;20213;-79
2023/06/20 03:58:40;;;;;;;13.77;11.20;;;15.40;99.90;;;;;;5029695;28;20879;-79
2023/06/20 04:01:07;;;;;;;13.00;10.93;;;15.50;99.90;;;;;;5044975;28;20322;-80
2023/06/20 04:03:33;;;;;;;14.53;12.50;;;15.50;99.90;;;;;;5030797;28;20479;-80
2023/06/20 04:06:01;;;;;;;13.93;12.47;;;15.60;99.90;;;;;;5036655;28;20782;-80
2023/06/20 04:08:28;;;;;;;13.43;11.83;;;15.70;99.90;;;;;;5032743;28;20251;-80
2023/06/20 04:10:54;;;;;;;14.93;12.15;;;15.80;99.90;;;;;;5034385;28;21046;-80
2023/06/20 04:13:22;;;;;;;12.63;11.33;;;15.80;99.90;;;;;;5032422;28;20248;-80
2023/06/20 04:15:49;;;;;;;12.87;11.57;;;15.90;99.90;;;;;;5042182;28;20292;-80
2023/06/20 04:18:16;;;;;;;12.47;11.17;;;16.00;99.90;;;;;;5025972;28;20229;-81
2023/06/20 04:20:43;;;;;;;13.18;11.48;;;16.10;99.90;;;;;;5024298;28;21926;-80
2023/06/20 04:23:09;;;;;;;13.45;11.57;;;16.20;99.90;;;;;;5045112;28;20226;-79
2023/06/20 04:25:36;;;;;;;12.63;10.90;;;16.30;99.90;;;;;;5033304;28;20232;-79
2023/06/20 04:28:03;;;;;;;14.13;11.25;;;16.30;99.90;;;;;;5028419;28;20292;-79
2023/06/20 04:30:39;;;;;;;13.07;11.10;;;16.40;99.90;;;;;;5041723;28;20243;-80
2023/06/20 04:33:06;;;;;;;13.45;10.48;;;16.50;99.90;;;;;;5029516;28;20216;-81
2023/06/20 04:35:33;;;;;;;13.02;9.70;;;16.50;99.90;;;;;;5029334;28;20322;-80
2023/06/20 04:38:03;;;;;;;11.57;10.38;;;16.60;99.90;;;;;;5024826;28;20403;-80
2023/06/20 04:40:30;;;;;;;14.05;10.32;;;16.60;99.90;;;;;;5029651;28;20239;-80
2023/06/20 04:42:57;;;;;;;12.25;10.43;;;16.70;99.90;;;;;;5026451;28;20220;-80
2023/06/20 04:45:24;;;;;;;12.70;11.20;;;16.70;99.90;;;;;;5024794;28;20378;-81
2023/06/20 04:47:52;;;;;;;12.70;10.85;;;16.70;99.90;;;;;;5024792;28;20768;-81
2023/06/20 04:50:19;;;;;;;14.38;10.68;;;16.80;99.90;;;;;;5021911;28;20793;-80
2023/06/20 04:52:46;;;;;;;12.32;10.70;;;16.80;99.90;;;;;;5032150;28;20247;-80
2023/06/20 04:55:12;;;;;;;11.35;10.05;;;16.90;99.90;;;;;;5033807;28;20229;-80
2023/06/20 04:57:39;;;;;;;11.57;10.37;;;16.90;99.90;;;;;;5065458;28;20895;-80
2023/06/20 05:00:10;;;;;;;13.38;10.25;;;17.00;99.90;;;;;;5066057;28;20244;-81
2023/06/20 05:02:42;;;;;;;10.13;9.07;;;17.00;99.90;;;;;;5031433;28;20228;-80
2023/06/20 05:05:10;;;;;;;11.23;9.63;;;17.10;99.90;;;;;;5027272;28;20252;-83
2023/06/20 05:07:37;;;;;;;10.75;8.98;;;17.20;99.90;;;;;;5032114;28;20224;-82
2023/06/20 05:10:04;;;;;;;10.23;8.05;;;17.30;99.90;;;;;;5028054;28;20231;-79
2023/06/20 05:12:31;;;;;;;10.40;8.20;;;17.30;99.90;;;;;;5023019;28;20308;-80
2023/06/20 05:14:57;;;;;;;8.63;7.80;;;17.40;99.90;;;;;;5040082;28;20228;-80
2023/06/20 05:17:24;;;;;;;8.00;7.20;;;17.60;99.90;;;;;;5026793;28;20233;-80
2023/06/20 05:19:51;;;;;;;8.82;7.45;;;17.60;99.90;;;;;;5025566;28;20249;-80
2023/06/20 05:22:19;;;;;;;8.23;7.43;;;17.70;99.90;;;;;;5027836;28;20232;-80
2023/06/20 05:24:46;;;;;;;8.20;7.40;;;17.80;99.90;;;;;;5024727;28;20597;-80
2023/06/20 05:27:13;;;;;;;8.45;7.03;;;18.00;99.90;;;;;;5025874;28;20235;-80
2023/06/20 05:29:40;;;;;;;9.15;7.13;;;18.00;99.90;;;;;;5062436;28;20307;-80
2023/06/20 05:32:07;;;;;;;8.02;7.22;;;18.10;99.90;;;;;;5026327;28;20934;-80
2023/06/20 05:34:35;;;;;;;8.60;6.72;;;18.20;99.90;;;;;;5035628;28;20225;-81
2023/06/20 05:37:03;;;;;;;7.78;6.75;;;18.30;99.90;;;;;;5047811;28;20244;-80
2023/06/20 05:39:31;;;;;;;7.80;6.88;;;18.40;99.90;;;;;;5031335;28;20224;-81
2023/06/20 05:41:58;;;;;;;8.15;6.75;;;18.50;99.90;;;;;;5032107;28;20235;-80
2023/06/20 05:44:25;;;;;;;7.47;6.70;;;18.60;99.90;;;;;;5027072;28;20259;-81
2023/06/20 05:46:53;;;;;;;8.55;7.13;;;18.70;99.90;;;;;;5028979;28;20249;-81
2023/06/20 05:49:21;;;;;;;7.45;6.28;;;18.80;99.90;;;;;;5044476;28;20235;-80
2023/06/20 05:51:48;;;;;;;9.52;6.75;;;19.00;99.90;;;;;;5031161;28;20686;-81
2023/06/20 05:54:15;;;;;;;7.28;6.53;;;19.10;99.90;;;;;;5028482;28;20217;-80
2023/06/20 05:56:43;;;;;;;7.72;6.30;;;19.20;99.90;;;;;;5027321;28;20307;-80
2023/06/20 05:59:10;;;;;;;7.95;6.50;;;19.40;99.90;;;;;;5030790;28;20368;-80
2023/06/20 06:01:40;;;;;;;6.15;5.55;;;19.50;99.90;;;;;;5022685;28;20316;-80
2023/06/20 06:04:06;;;;;;;5.70;5.10;;;19.60;99.90;;;;;;5023647;28;20212;-81
2023/06/20 06:06:33;;;;;;;6.90;5.65;;;19.70;99.90;;;;;;5030619;28;20248;-80
2023/06/20 06:09:00;;;;;;;7.05;5.32;;;19.80;99.90;;;;;;5028726;28;20237;-81
2023/06/20 06:11:27;;;;;;;6.70;5.53;;;20.00;99.90;;;;;;5030481;28;20668;-82
2023/06/20 06:13:55;;;;;;;7.30;4.78;;;20.10;99.90;;;;;;5031689;28;20275;-82
2023/06/20 06:16:22;;;;;;;5.63;4.63;;;20.30;99.90;;;;;;5030104;28;20217;-82
2023/06/20 06:18:50;;;;;;;6.15;5.05;;;20.50;99.90;;;;;;5030199;28;20239;-80
2023/06/20 06:21:17;;;;;;;6.65;4.97;;;20.70;99.90;;;;;;5029476;28;20225;-81
2023/06/20 06:23:44;;;;;;;6.20;4.72;;;20.90;99.90;;;;;;5033022;28;20228;-83
2023/06/20 06:26:11;;;;;;;7.18;4.32;;;21.00;99.90;;;;;;5030611;28;20216;-83
2023/06/20 06:28:38;;;;;;;4.78;4.38;;;21.20;99.90;;;;;;5039301;28;20286;-81
2023/06/20 06:31:09;;;;;;;4.75;4.22;;;21.40;99.90;;;;;;5031870;28;20216;-81
2023/06/20 06:33:36;;;;;;;4.50;4.10;;;21.60;99.90;;;;;;5032335;28;20235;-80
2023/06/20 06:36:02;;;;;;;6.55;4.50;;;21.70;99.90;;;;;;5026915;28;20761;-82
2023/06/20 06:38:29;;;;;;;7.05;5.13;;;21.90;99.90;;;;;;5031471;28;20311;-81
2023/06/20 06:40:56;;;;;;;5.20;4.60;;;22.00;99.90;;;;;;5031647;28;20224;-80
2023/06/20 06:43:23;;;;;;;6.30;4.88;;;22.00;99.40;;;;;;5027992;28;20224;-80
2023/06/20 06:45:50;;;;;;;5.85;4.38;;;22.20;99.40;;;;;;5029686;28;20217;-81
2023/06/20 06:48:18;;;;;;;5.20;4.70;;;22.30;99.20;;;;;;5030917;28;20223;-80
2023/06/20 06:50:45;;;;;;;5.63;4.60;;;22.40;99.10;;;;;;5030074;28;20221;-81
2023/06/20 06:53:12;;;;;;;6.60;4.63;;;22.50;99.30;;;;;;5030014;28;20225;-81
2023/06/20 06:55:44;;;;;;;5.38;4.45;;;22.60;99.20;;;;;;5015950;28;20224;-81
2023/06/20 06:58:11;;;;;;;4.60;4.07;;;22.90;98.90;;;;;;5022479;28;20228;-81
2023/06/20 07:00:38;;;;;;;4.43;3.97;;;23.10;98.40;;;;;;5017958;28;20217;-82
2023/06/20 07:03:06;;;;;;;5.70;4.00;;;23.30;97.60;;;;;;5015785;28;20229;-81
2023/06/20 07:05:33;;;;;;;4.38;3.60;;;23.60;97.40;;;;;;5025576;28;20441;-81
2023/06/20 07:08:00;;;;;;;4.22;3.80;;;23.90;96.90;;;;;;5023445;28;20723;-81
2023/06/20 07:10:27;;;;;;;4.13;3.72;;;24.20;96.40;;;;;;5022408;28;20229;-81
2023/06/20 07:12:54;;;;;;;4.18;3.78;;;24.40;95.80;;;;;;5022948;28;20731;-81
2023/06/20 07:15:20;;;;;;;4.65;3.78;;;24.70;95.00;;;;;;5022292;28;20224;-81
2023/06/20 07:17:47;;;;;;;6.45;3.83;;;24.90;94.40;;;;;;5028114;28;20232;-81
2023/06/20 07:20:14;;;;;;;4.00;3.70;;;25.00;94.00;;;;;;5025962;28;20271;-82
2023/06/20 07:22:42;;;;;;;5.05;3.83;;;25.10;93.70;;;;;;5041598;28;20827;-80
2023/06/20 07:25:09;;;;;;;4.22;3.80;;;25.30;93.30;;;;;;5022367;28;20227;-81
2023/06/20 07:27:35;;;;;;;4.22;3.83;;;25.50;93.40;;;;;;5036514;28;20224;-81
2023/06/20 07:30:02;;;;;;;3.95;3.53;;;25.80;93.20;;;;;;5025045;28;20213;-81
2023/06/20 07:32:29;;;;;;;4.00;3.45;;;26.20;92.70;;;;;;5021622;28;20283;-81
2023/06/20 07:34:56;;;;;;;4.07;3.67;;;26.60;91.90;;;;;;5030765;28;20213;-81
2023/06/20 07:37:23;;;;;;;5.10;4.13;;;27.00;91.00;;;;;;5023217;28;20235;-81
2023/06/20 07:39:51;;;;;;;4.45;3.97;;;27.40;90.50;;;;;;5028271;28;20235;-81
2023/06/20 07:42:18;;;;;;;4.45;4.00;;;27.70;88.70;;;;;;5026944;28;20777;-81
2023/06/20 07:44:44;;;;;;;4.15;3.75;;;28.00;88.30;;;;;;5028473;28;21126;-81
2023/06/20 07:47:13;;;;;;;4.85;4.25;;;28.30;86.80;;;;;;5029215;28;20220;-83
2023/06/20 07:49:39;;;;;;;5.78;4.47;;;28.50;85.10;;;;;;5021943;28;20520;-82
2023/06/20 07:52:09;;;;;;;4.70;4.30;;;28.70;83.30;;;;;;5022546;28;20347;-83
2023/06/20 07:54:35;;;;;;;4.95;4.45;;;28.80;83.30;;;;;;5038488;28;20217;-83
2023/06/20 07:57:05;;;;;;;4.45;4.03;;;29.00;83.00;;;;;;5025583;28;20232;-80
2023/06/20 07:59:32;;;;;;;4.60;4.18;;;29.20;81.70;;;;;;5025854;28;20213;-81
2023/06/20 08:01:59;;;;;;;5.38;4.25;;;29.50;81.10;;;;;;5022819;28;20221;-81
2023/06/20 08:04:25;;;;;;;4.38;3.97;;;29.70;81.50;;;;;;5058147;28;20231;-80
2023/06/20 08:06:52;;;;;;;7.50;4.32;;;30.00;80.50;;;;;;5025565;28;20335;-82
2023/06/20 08:09:19;;;;;;;4.65;3.90;;;30.20;79.00;;;;;;5022506;28;20251;-81
2023/06/20 08:11:45;;;;;;;5.05;4.20;;;30.40;77.60;;;;;;5035338;28;20217;-83
2023/06/20 08:14:13;;;;;;;4.90;4.43;;;30.50;76.40;;;;;;5019490;28;20227;-86
2023/06/20 08:16:40;;;;;;;5.38;4.35;;;30.70;75.60;;;;;;5016777;28;20296;-80
2023/06/20 08:19:07;;;;;;;7.05;4.28;;;30.80;75.20;;;;;;5029014;28;20292;-82
2023/06/20 08:21:34;;;;;;;4.95;4.45;;;31.00;74.60;;;;;;5026434;28;20273;-82
2023/06/20 08:24:00;;;;;;;4.53;4.13;;;31.30;73.00;;;;;;5019214;28;20229;-83
2023/06/20 08:26:27;;;;;;;5.20;4.13;;;31.40;70.80;;;;;;5024572;28;20328;-83
2023/06/20 08:28:54;;;;;;;5.25;4.07;;;31.50;70.20;;;;;;5023219;28;20220;-81
2023/06/20 08:31:22;;;;;;;4.80;4.30;;;31.50;69.40;;;;;;5023743;28;20227;-81
2023/06/20 08:33:48;;;;;;;4.15;3.65;;;31.60;68.40;;;;;;5021078;28;20220;-82
2023/06/20 08:36:15;;;;;;;4.95;3.63;;;31.60;68.20;;;;;;5016517;28;20311;-81
2023/06/20 08:38:42;;;;;;;5.85;4.00;;;31.60;68.60;;;;;;5025492;28;21001;-81
2023/06/20 08:41:09;;;;;;;4.97;3.90;;;31.70;67.60;;;;;;5042464;28;20217;-86
2023/06/20 08:43:36;;;;;;;5.72;3.65;;;31.80;67.20;;;;;;5025431;28;20227;-88
2023/06/20 08:46:02;;;;;;;5.25;3.58;;;31.90;67.00;;;;;;5026267;28;20220;-83
2023/06/20 08:48:31;;;;;;;3.88;3.58;;;32.00;65.10;;;;;;5024791;28;20255;-82
2023/06/20 08:50:57;;;;;;;6.10;4.10;;;32.00;63.50;;;;;;5040890;28;20253;-80
2023/06/20 08:53:25;;;;;;;5.05;4.03;;;31.80;63.60;;;;;;5022598;28;20709;-86
2023/06/20 08:55:53;;;;;;;5.78;3.83;;;31.70;64.00;;;;;;5040475;28;20224;-81
2023/06/20 08:58:19;;;;;;;4.30;3.90;;;31.40;63.10;;;;;;5028146;28;20228;-84
2023/06/20 09:00:47;;;;;;;4.13;3.55;;;31.20;64.10;;;;;;5039108;22;20233;-75
2023/06/20 09:03:14;;;;;;;4.97;4.00;;;31.00;64.70;;;;;;4998081;28;20233;-75
2023/06/20 09:05:45;;;;;;;4.82;4.32;;;30.90;64.10;;;;;;5000534;28;20229;-75
2023/06/20 09:08:14;;;;;;;4.47;3.45;;;30.80;63.80;;;;;;5000296;28;20581;-76
2023/06/20 09:10:41;;;;;;;4.15;3.53;;;30.80;64.60;;;;;;4996661;28;20276;-75
2023/06/20 09:13:09;;;;;;;3.95;3.58;;;30.80;64.30;;;;;;4999800;28;20328;-75
2023/06/20 09:15:37;;;;;;;4.22;3.58;;;31.00;64.10;;;;;;4988735;28;20230;-75
2023/06/20 09:18:06;;;;;;;4.45;3.75;;;31.10;64.20;;;;;;4984545;28;20719;-75
2023/06/20 09:20:33;;;;;;;4.10;3.70;;;31.40;63.80;;;;;;4984887;28;20668;-76
2023/06/20 09:23:02;;;;;;;4.28;3.55;;;31.70;63.10;;;;;;4982799;28;20392;-75
2023/06/20 09:25:29;;;;;;;4.45;4.05;;;32.00;62.50;;;;;;4979555;28;20330;-75
2023/06/20 09:27:57;;;;;;;4.47;3.70;;;32.30;60.90;;;;;;4996694;28;20222;-75
2023/06/20 09:30:24;;;;;;;3.95;3.60;;;32.40;59.70;;;;;;4979125;28;20233;-75
2023/06/20 09:32:50;;;;;;;5.38;3.83;;;32.50;59.80;;;;;;4984322;28;20672;-76
2023/06/20 09:35:17;;;;;;;5.57;4.18;;;32.50;59.70;;;;;;4980796;28;20248;-76
2023/06/20 09:37:45;;;;;;;6.20;4.32;;;32.30;59.50;;;;;;4985230;28;20296;-76
2023/06/20 09:40:15;;;;;;;4.43;4.00;;;32.30;59.60;;;;;;4983212;28;20233;-76
2023/06/20 09:42:43;;;;;;;4.70;4.22;;;32.20;59.90;;;;;;4982861;28;20267;-77
2023/06/20 09:45:11;;;;;;;5.30;4.80;;;32.20;60.50;;;;;;4985173;28;20241;-76
2023/06/20 09:47:39;;;;;;;4.32;3.92;;;32.30;59.90;;;;;;4986075;28;20241;-77
2023/06/20 09:50:07;;;;;;;4.45;4.05;;;32.50;60.00;;;;;;4985964;28;20589;-76
2023/06/20 09:52:37;;;;;;;4.30;3.90;;;32.70;60.50;;;;;;4983625;28;20244;-76
2023/06/20 09:55:09;;;;;;;6.20;4.47;;;33.20;60.80;;;;;;4986136;28;20222;-78
2023/06/20 09:57:40;;;;;;;3.88;3.58;;;33.50;57.60;;;;;;4987088;28;20238;-78
2023/06/20 10:00:12;;;;;;;4.50;4.10;;;33.80;58.50;;;;;;4981664;28;20236;-78
2023/06/20 10:02:43;;;;;;;6.68;4.53;;;34.10;58.40;;;;;;4987420;28;20325;-78
2023/06/20 10:05:10;;;;;;;5.10;4.60;;;34.30;57.60;;;;;;4984235;28;20218;-78
2023/06/20 10:07:38;;;;;;;5.22;4.70;;;34.50;56.80;;;;;;4986161;28;20269;-78
2023/06/20 10:10:05;;;;;;;5.32;4.65;;;34.70;57.60;;;;;;4986116;28;20602;-78
2023/06/20 10:12:33;;;;;;;5.90;4.45;;;34.90;57.00;;;;;;4987113;28;20316;-78
2023/06/20 10:15:02;;;;;;;5.70;5.20;;;35.10;56.90;;;;;;4985994;28;20222;-78
2023/06/20 10:17:34;;;;;;;5.78;4.85;;;35.40;56.50;;;;;;4984413;28;20277;-78
2023/06/20 10:20:01;;;;;;;6.45;4.50;;;35.60;56.20;;;;;;4985081;28;20711;-78
2023/06/20 10:22:35;;;;;;;5.20;4.70;;;35.80;55.10;;;;;;4984051;28;20958;-78
2023/06/20 10:25:12;;;;;;;5.93;4.82;;;35.80;54.70;;;;;;4984935;28;20225;-78
2023/06/20 10:27:41;;;;;;;5.40;4.90;;;35.60;53.30;;;;;;4985636;28;20233;-78
2023/06/20 10:30:12;;;;;;;5.88;5.38;;;35.30;53.40;;;;;;4985094;28;20214;-78
2023/06/20 10:33:06;;;;;;;5.53;5.00;;;34.80;53.50;;;;;;4982015;28;20222;-78
2023/06/20 10:35:33;;;;;;;5.32;4.88;;;34.20;54.60;;;;;;4981408;28;20735;-78
2023/06/20 10:38:08;;;;;;;7.60;5.57;;;33.80;55.00;;;;;;4983347;28;20218;-79
2023/06/20 10:40:36;;;;;;;5.35;4.85;;;33.40;55.30;;;;;;4979188;28;20246;-78
2023/06/20 10:43:06;;;;;;;8.95;5.75;;;33.10;56.30;;;;;;4970814;28;20694;-78
2023/06/20 10:45:35;;;;;;;5.35;4.85;;;32.90;57.30;;;;;;4982170;28;20222;-78
2023/06/20 10:48:03;;;;;;;5.38;4.93;;;32.70;57.10;;;;;;4980870;28;20310;-78
2023/06/20 10:50:30;;;;;;;5.50;5.00;;;32.50;56.60;;;;;;4972443;28;20316;-78
2023/06/20 10:53:01;;;;;;;5.82;5.15;;;32.40;57.40;;;;;;4979246;28;20218;-78
2023/06/20 10:55:29;;;;;;;5.53;4.75;;;32.20;57.60;;;;;;4978773;28;20758;-79
2023/06/20 10:57:56;;;;;;;5.40;4.90;;;32.10;57.80;;;;;;4980860;28;20226;-78
2023/06/20 11:00:24;;;;;;;6.65;5.45;;;32.00;58.00;;;;;;4980730;28;20260;-79
2023/06/20 11:02:54;;;;;;;5.20;4.80;;;31.90;58.40;;;;;;4982495;28;20236;-79
2023/06/20 11:05:26;;;;;;;5.40;4.90;;;31.80;58.70;;;;;;4995234;28;20794;-79
2023/06/20 11:07:59;;;;;;;5.13;4.72;;;31.70;58.70;;;;;;4987131;28;20315;-79
2023/06/20 11:10:30;;;;;;;5.95;5.18;;;31.60;58.90;;;;;;4983355;28;20234;-81
2023/06/20 11:12:57;;;;;;;5.70;5.15;;;31.50;58.70;;;;;;4985061;28;20229;-78
2023/06/20 11:15:26;;;;;;;5.57;5.07;;;31.30;58.70;;;;;;4982529;28;20298;-78
2023/06/20 11:17:55;;;;;;;7.03;5.35;;;31.20;58.90;;;;;;4983898;28;20226;-79
2023/06/20 11:20:24;;;;;;;5.78;5.28;;;30.90;59.10;;;;;;4986413;28;20325;-78
2023/06/20 11:22:53;;;;;;;5.70;4.82;;;30.80;59.20;;;;;;4984754;28;20288;-78
2023/06/20 11:25:28;;;;;;;5.75;5.25;;;30.70;59.70;;;;;;4982531;28;20276;-79
2023/06/20 11:27:55;;;;;;;5.22;4.72;;;30.50;60.00;;;;;;4982181;28;20715;-78
2023/06/20 11:30:27;;;;;;;5.47;4.97;;;30.40;60.60;;;;;;4981843;28;20226;-80
2023/06/20 11:33:03;;;;;;;5.45;4.95;;;30.40;61.20;;;;;;4981835;28;20222;-80
2023/06/20 11:35:45;;;;;;;7.90;5.13;;;30.40;61.90;;;;;;4979067;28;20241;-80
2023/06/20 11:38:13;;;;;;;6.43;5.28;;;30.50;61.20;;;;;;4966388;28;20267;-80
2023/06/20 11:40:40;;;;;;;5.65;5.10;;;30.70;60.70;;;;;;4982827;28;20321;-79
2023/06/20 11:43:07;;;;;;;6.57;5.00;;;30.80;60.60;;;;;;4972946;28;20292;-80
2023/06/20 11:45:34;;;;;;;8.32;5.50;;;30.90;60.70;;;;;;4965952;28;20230;-79
2023/06/20 11:48:13;;;;;;;7.00;5.25;;;31.00;60.70;;;;;;4955917;28;20607;-80
2023/06/20 11:50:42;;;;;;;6.32;5.20;;;31.20;60.40;;;;;;4967438;28;20249;-79
2023/06/20 11:53:19;;;;;;;5.53;5.03;;;31.30;60.30;;;;;;4983859;28;20214;-80
2023/06/20 11:55:50;;;;;;;5.28;4.68;;;31.40;60.20;;;;;;4977036;28;20738;-79
2023/06/20 11:58:17;;;;;;;6.03;4.88;;;31.50;59.80;;;;;;4959066;28;20245;-79
2023/06/20 12:00:47;;;;;;;5.90;5.40;;;31.70;60.00;;;;;;4959316;28;21038;-79
2023/06/20 12:03:21;;;;;;;6.18;5.45;;;31.80;59.40;;;;;;4984194;28;20324;-78
2023/06/20 12:05:48;;;;;;;5.90;5.40;;;31.90;59.20;;;;;;4996787;28;20222;-78
2023/06/20 12:08:15;;;;;;;5.68;5.18;;;32.00;59.40;;;;;;4978782;28;20302;-78
2023/06/20 12:10:47;;;;;;;6.10;5.47;;;32.10;58.80;;;;;;4978491;28;20333;-78
2023/06/20 12:13:15;;;;;;;6.03;5.32;;;32.20;58.50;;;;;;4979870;28;20233;-78
2023/06/20 12:15:44;;;;;;;5.80;5.30;;;32.40;58.70;;;;;;4980652;28;20225;-78
2023/06/20 12:18:11;;;;;;;7.28;5.72;;;32.40;58.50;;;;;;4978195;28;20215;-78
2023/06/20 12:20:39;;;;;;;6.72;6.03;;;32.50;58.10;;;;;;4973712;28;20659;-77
2023/06/20 12:23:06;;;;;;;6.10;5.47;;;32.50;57.60;;;;;;4981550;28;20225;-78
2023/06/20 12:25:33;;;;;;;5.80;5.20;;;32.50;58.40;;;;;;4982943;28;20308;-78
2023/06/20 12:28:00;;;;;;;7.00;5.22;;;32.50;58.90;;;;;;4981469;28;20229;-78
2023/06/20 12:30:27;;;;;;;6.25;5.65;;;32.50;58.10;;;;;;4981181;28;20222;-78
2023/06/20 12:32:57;;;;;;;6.97;5.25;;;32.50;57.80;;;;;;4977408;28;20215;-78
2023/06/20 12:35:24;;;;;;;6.22;5.63;;;32.50;58.30;;;;;;4979612;28;20237;-78
2023/06/20 12:37:52;;;;;;;6.22;5.10;;;32.50;58.20;;;;;;4981175;28;20249;-78
2023/06/20 12:40:19;;;;;;;6.22;5.63;;;32.40;58.20;;;;;;4981593;28;20240;-77
2023/06/20 12:42:45;;;;;;;6.10;5.57;;;32.40;58.10;;;;;;4981887;28;20298;-78
2023/06/20 12:45:12;;;;;;;6.55;5.72;;;32.30;58.30;;;;;;4982066;28;20233;-78
2023/06/20 12:47:39;;;;;;;7.30;5.60;;;32.30;58.20;;;;;;4982143;28;20230;-78